Time;durP1;ratioP1;P1;durP2;ratioP2;P2;SDS_P1;SDS_P2;PMS_P1;PMS_P2;Temp;Humidity;BMP_temperature;BMP_pressure;BME280_temperature;BME280_humidity;BME280_pressure;Samples;Min_cycle;Max_cycle;Signal;HPM_P1;HPM_P2
2020/12/12 00:01:32;;;;;;;7.93;5.93;;;2.70;99.90;;;;;;5025361;28;20205;-72
2020/12/12 00:03:58;;;;;;;7.47;6.20;;;2.70;99.90;;;;;;5024745;28;20233;-72
2020/12/12 00:06:25;;;;;;;8.63;6.60;;;2.60;99.90;;;;;;5025472;28;20681;-73
2020/12/12 00:08:51;;;;;;;6.97;5.60;;;2.70;99.90;;;;;;5025308;28;20221;-72
2020/12/12 00:11:19;;;;;;;10.82;6.13;;;2.60;99.90;;;;;;5025484;28;20210;-72
2020/12/12 00:13:45;;;;;;;10.25;6.60;;;2.70;99.90;;;;;;5024889;28;20221;-71
2020/12/12 00:16:11;;;;;;;8.90;6.80;;;2.60;99.90;;;;;;5024951;28;20209;-74
2020/12/12 00:18:37;;;;;;;8.25;6.30;;;2.60;99.90;;;;;;5025637;28;20208;-73
2020/12/12 00:21:03;;;;;;;10.27;6.97;;;2.60;99.90;;;;;;5025035;28;20674;-72
2020/12/12 00:23:31;;;;;;;8.40;6.40;;;2.60;99.90;;;;;;5024163;28;20236;-71
2020/12/12 00:25:57;;;;;;;10.25;6.97;;;2.60;99.90;;;;;;5025196;28;20216;-71
2020/12/12 00:28:23;;;;;;;8.18;6.65;;;2.60;99.90;;;;;;5024528;28;20225;-72
2020/12/12 00:30:50;;;;;;;8.13;6.57;;;2.60;99.90;;;;;;5024528;28;20227;-72
2020/12/12 00:33:16;;;;;;;9.23;6.70;;;2.60;99.90;;;;;;5024229;28;20696;-71
2020/12/12 00:35:42;;;;;;;7.53;6.15;;;2.60;99.90;;;;;;5024918;28;20216;-71
2020/12/12 00:38:08;;;;;;;7.75;5.88;;;2.70;99.90;;;;;;5023852;28;20221;-72
2020/12/12 00:40:35;;;;;;;7.85;5.90;;;2.70;99.90;;;;;;5025020;28;20728;-72
2020/12/12 00:43:01;;;;;;;7.57;6.28;;;2.80;99.90;;;;;;5025779;28;20234;-72
2020/12/12 00:45:28;;;;;;;10.38;7.50;;;2.80;99.90;;;;;;5026304;28;20661;-73
2020/12/12 00:47:54;;;;;;;6.50;5.45;;;2.80;99.90;;;;;;5026264;28;20221;-71
2020/12/12 00:50:23;;;;;;;9.65;6.50;;;2.80;99.90;;;;;;5026256;28;20221;-72
2020/12/12 00:52:49;;;;;;;8.88;6.50;;;2.80;99.90;;;;;;5025560;28;20229;-72
2020/12/12 00:55:16;;;;;;;7.70;5.75;;;2.80;99.90;;;;;;5025871;28;20213;-73
2020/12/12 00:57:44;;;;;;;7.53;5.68;;;2.80;99.90;;;;;;5025949;28;20623;-71
2020/12/12 01:00:11;;;;;;;7.20;5.82;;;2.80;99.90;;;;;;5025880;28;20210;-72
2020/12/12 01:02:37;;;;;;;8.18;6.30;;;2.80;99.90;;;;;;5025602;28;20229;-73
2020/12/12 01:05:03;;;;;;;7.70;6.03;;;2.80;99.90;;;;;;5025428;28;20479;-72
2020/12/12 01:07:30;;;;;;;7.35;6.65;;;2.80;99.90;;;;;;5025759;28;20217;-73
2020/12/12 01:09:56;;;;;;;8.23;6.38;;;2.90;99.90;;;;;;5025700;28;20228;-71
2020/12/12 01:12:22;;;;;;;7.93;6.47;;;2.70;99.90;;;;;;5025129;28;20221;-73
2020/12/12 01:14:49;;;;;;;7.28;6.05;;;2.70;99.90;;;;;;5025962;28;20578;-71
2020/12/12 01:17:15;;;;;;;7.18;5.72;;;2.70;99.90;;;;;;5026197;28;20599;-72
2020/12/12 01:19:42;;;;;;;6.55;5.70;;;2.70;99.90;;;;;;5026056;28;20197;-73
2020/12/12 01:22:08;;;;;;;5.63;4.70;;;2.70;99.90;;;;;;5024889;28;20222;-73
2020/12/12 01:24:35;;;;;;;6.88;5.00;;;2.70;99.90;;;;;;5025866;28;20450;-72
2020/12/12 01:27:01;;;;;;;6.78;5.00;;;2.70;99.90;;;;;;5025922;28;20735;-73
2020/12/12 01:29:27;;;;;;;5.80;5.20;;;2.80;99.90;;;;;;5025865;28;21133;-73
2020/12/12 01:31:55;;;;;;;7.38;5.40;;;2.80;99.90;;;;;;5025116;28;20218;-72
2020/12/12 01:34:21;;;;;;;7.30;5.20;;;2.80;99.90;;;;;;5025716;28;20665;-73
2020/12/12 01:36:48;;;;;;;7.57;5.78;;;2.80;99.90;;;;;;5025575;28;20665;-72
2020/12/12 01:39:14;;;;;;;6.20;4.90;;;2.80;99.90;;;;;;5025771;28;20685;-73
2020/12/12 01:41:41;;;;;;;6.50;5.20;;;2.80;99.90;;;;;;5025255;28;20205;-73
2020/12/12 01:44:07;;;;;;;7.68;5.10;;;2.80;99.90;;;;;;5025168;28;20216;-72
2020/12/12 01:46:34;;;;;;;7.40;5.72;;;2.80;99.90;;;;;;5025595;28;20217;-72
2020/12/12 01:49:01;;;;;;;6.35;5.35;;;2.70;99.90;;;;;;5025085;28;20233;-72
2020/12/12 01:51:27;;;;;;;5.70;5.10;;;2.70;99.90;;;;;;5025209;28;20198;-72
2020/12/12 01:53:57;;;;;;;5.50;4.70;;;2.80;99.90;;;;;;5024857;28;20229;-72
2020/12/12 01:56:24;;;;;;;6.53;5.22;;;2.80;99.90;;;;;;5025223;28;20216;-73
2020/12/12 01:58:52;;;;;;;6.07;4.57;;;2.80;99.90;;;;;;5025641;28;20606;-72
2020/12/12 02:01:22;;;;;;;7.75;5.00;;;2.80;99.90;;;;;;5025969;28;20236;-72
2020/12/12 02:03:50;;;;;;;6.20;5.13;;;2.80;99.90;;;;;;5025094;28;20229;-71
2020/12/12 02:06:19;;;;;;;7.15;5.20;;;2.80;99.90;;;;;;5025174;28;20206;-72
2020/12/12 02:08:46;;;;;;;6.78;4.55;;;2.80;99.90;;;;;;5025665;28;20222;-73
2020/12/12 02:11:13;;;;;;;5.10;4.60;;;2.80;99.90;;;;;;5025737;28;20252;-72
2020/12/12 02:13:45;;;;;;;4.72;4.22;;;2.80;99.90;;;;;;5087576;22;20229;-77
2020/12/12 02:16:12;;;;;;;7.07;4.75;;;2.80;99.90;;;;;;5029363;28;20233;-76
2020/12/12 02:18:39;;;;;;;5.65;4.63;;;2.80;99.90;;;;;;5034351;28;20570;-77
2020/12/12 02:21:06;;;;;;;6.18;4.88;;;2.80;99.90;;;;;;5034109;28;20233;-76
2020/12/12 02:23:33;;;;;;;5.55;4.00;;;2.90;99.90;;;;;;5032398;28;20225;-77
2020/12/12 02:26:00;;;;;;;5.10;4.10;;;2.90;99.90;;;;;;5032837;28;20747;-77
2020/12/12 02:28:30;;;;;;;5.80;4.40;;;2.90;99.90;;;;;;5032770;28;20325;-78
2020/12/12 02:30:56;;;;;;;4.90;4.00;;;2.90;99.90;;;;;;5032539;28;20742;-78
2020/12/12 02:33:22;;;;;;;5.15;4.53;;;2.90;99.90;;;;;;5032285;28;20230;-77
2020/12/12 02:35:48;;;;;;;5.95;4.32;;;2.90;99.90;;;;;;5032790;28;20201;-77
2020/12/12 02:38:15;;;;;;;7.85;4.78;;;2.90;99.90;;;;;;5032771;28;20193;-77
2020/12/12 02:40:42;;;;;;;4.15;3.75;;;2.90;99.90;;;;;;5033028;28;20211;-75
2020/12/12 02:43:12;;;;;;;5.75;4.57;;;3.00;99.90;;;;;;5031926;28;20241;-76
2020/12/12 02:45:39;;;;;;;5.68;4.32;;;3.00;99.90;;;;;;5032563;28;20210;-75
2020/12/12 02:48:05;;;;;;;5.40;4.50;;;3.00;99.90;;;;;;5032253;28;20333;-77
2020/12/12 02:50:32;;;;;;;5.40;4.72;;;3.10;99.90;;;;;;5032289;28;20202;-76
2020/12/12 02:52:59;;;;;;;5.25;3.88;;;3.10;99.90;;;;;;5031783;28;20217;-77
2020/12/12 02:55:25;;;;;;;5.45;4.05;;;3.10;99.90;;;;;;5032266;28;20198;-76
2020/12/12 02:57:52;;;;;;;7.43;5.20;;;3.10;99.90;;;;;;5032242;28;20222;-78
2020/12/12 03:00:22;;;;;;;5.68;4.45;;;3.10;99.90;;;;;;5032060;28;20674;-76
2020/12/12 03:02:48;;;;;;;5.53;4.65;;;3.10;99.90;;;;;;5032106;28;20233;-76
2020/12/12 03:05:14;;;;;;;6.32;5.40;;;3.10;99.90;;;;;;5032101;28;20205;-78
2020/12/12 03:07:41;;;;;;;6.15;5.15;;;3.20;99.90;;;;;;5024795;28;20203;-77
2020/12/12 03:10:07;;;;;;;5.63;5.00;;;3.10;99.90;;;;;;4991300;28;20223;-77
2020/12/12 03:12:34;;;;;;;6.10;5.25;;;3.10;99.90;;;;;;4993341;28;20314;-76
2020/12/12 03:15:02;;;;;;;7.20;5.13;;;3.10;99.90;;;;;;5006695;28;20199;-77
2020/12/12 03:17:28;;;;;;;7.47;6.10;;;3.10;99.90;;;;;;5003233;28;20222;-77
2020/12/12 03:19:54;;;;;;;8.02;5.50;;;3.10;99.90;;;;;;5002137;28;20203;-76
2020/12/12 03:22:24;;;;;;;6.10;5.50;;;3.10;99.90;;;;;;4990689;28;20227;-76
2020/12/12 03:24:52;;;;;;;6.82;6.03;;;3.10;99.90;;;;;;4991309;28;20203;-77
2020/12/12 03:27:18;;;;;;;7.22;5.60;;;3.20;99.90;;;;;;4990716;28;20304;-77
2020/12/12 03:29:45;;;;;;;6.55;5.38;;;3.10;99.90;;;;;;4991282;28;20260;-77
2020/12/12 03:32:12;;;;;;;7.50;5.88;;;3.10;99.90;;;;;;4990407;28;20215;-77
2020/12/12 03:34:40;;;;;;;7.43;5.97;;;3.10;99.90;;;;;;4991139;28;20663;-78
2020/12/12 03:37:07;;;;;;;7.82;6.20;;;3.10;99.90;;;;;;4990964;28;20861;-78
2020/12/12 03:39:33;;;;;;;5.35;4.22;;;3.10;99.90;;;;;;4991304;28;20195;-77
2020/12/12 03:41:59;;;;;;;5.20;4.70;;;3.10;99.90;;;;;;4990575;28;20223;-77
2020/12/12 03:44:27;;;;;;;5.93;5.25;;;3.10;99.90;;;;;;4991621;28;20203;-77
2020/12/12 03:46:53;;;;;;;7.03;6.28;;;3.10;99.90;;;;;;4991354;28;20293;-77
2020/12/12 03:49:20;;;;;;;9.20;6.15;;;3.10;99.90;;;;;;4991259;28;20219;-77
2020/12/12 03:51:46;;;;;;;7.70;5.95;;;3.10;99.90;;;;;;4991115;28;20209;-77
2020/12/12 03:54:12;;;;;;;5.78;5.03;;;3.10;99.90;;;;;;4991242;28;20207;-77
2020/12/12 03:56:39;;;;;;;6.95;5.75;;;3.10;99.90;;;;;;4991645;28;20203;-77
2020/12/12 03:59:05;;;;;;;7.82;6.03;;;3.20;99.90;;;;;;4991020;28;20199;-76
2020/12/12 04:01:32;;;;;;;7.45;5.72;;;3.10;99.90;;;;;;4991260;28;20211;-77
2020/12/12 04:03:58;;;;;;;7.65;5.82;;;3.10;99.90;;;;;;4991033;28;20776;-77
2020/12/12 04:06:25;;;;;;;7.10;5.55;;;3.10;99.90;;;;;;4991303;28;20199;-77
2020/12/12 04:08:51;;;;;;;7.97;6.32;;;3.20;99.90;;;;;;4991387;28;20250;-77
2020/12/12 04:11:17;;;;;;;8.30;5.80;;;3.20;99.90;;;;;;4991294;28;20207;-78
2020/12/12 04:13:43;;;;;;;7.80;5.68;;;3.20;99.90;;;;;;4990666;28;20238;-78
2020/12/12 04:16:10;;;;;;;6.78;6.00;;;3.20;99.90;;;;;;4991080;28;20206;-77
2020/12/12 04:18:36;;;;;;;7.53;5.82;;;3.20;99.90;;;;;;4991106;28;20698;-77
2020/12/12 04:21:02;;;;;;;7.72;6.78;;;3.20;99.90;;;;;;4990859;28;20211;-77
2020/12/12 04:23:29;;;;;;;7.70;5.95;;;3.20;99.90;;;;;;4990456;28;20234;-77
2020/12/12 04:25:55;;;;;;;7.53;5.68;;;3.20;99.90;;;;;;4991271;28;20290;-77
2020/12/12 04:28:21;;;;;;;7.30;5.32;;;3.20;99.90;;;;;;4990903;28;20230;-77
2020/12/12 04:30:48;;;;;;;7.15;6.22;;;3.20;99.90;;;;;;4991109;28;20207;-78
2020/12/12 04:33:14;;;;;;;8.50;6.65;;;3.20;99.90;;;;;;4990137;28;20601;-77
2020/12/12 04:35:40;;;;;;;7.45;6.18;;;3.30;99.90;;;;;;4990910;28;20290;-77
2020/12/12 04:38:06;;;;;;;8.18;5.70;;;3.30;99.90;;;;;;4990723;28;20203;-78
2020/12/12 04:40:34;;;;;;;6.25;5.57;;;3.20;99.90;;;;;;4990178;28;20203;-77
2020/12/12 04:43:02;;;;;;;8.20;5.43;;;3.20;99.90;;;;;;4990090;28;20223;-77
2020/12/12 04:45:29;;;;;;;8.30;6.03;;;3.20;99.90;;;;;;4990846;28;20210;-78
2020/12/12 04:47:55;;;;;;;7.35;5.30;;;3.20;99.90;;;;;;4990639;28;20199;-77
2020/12/12 04:50:28;;;;;;;8.73;6.07;;;3.20;99.90;;;;;;4990514;28;20233;-77
2020/12/12 04:52:56;;;;;;;9.35;6.38;;;3.30;99.90;;;;;;4990217;28;20714;-76
2020/12/12 04:55:24;;;;;;;8.25;6.03;;;3.30;99.90;;;;;;4990710;28;20238;-77
2020/12/12 04:57:53;;;;;;;8.32;6.03;;;3.20;99.90;;;;;;4990517;28;20207;-77
2020/12/12 05:00:20;;;;;;;7.60;5.30;;;3.20;99.90;;;;;;4990573;28;20231;-76
2020/12/12 05:02:47;;;;;;;7.90;6.60;;;3.30;99.90;;;;;;4989752;28;20657;-77
2020/12/12 05:05:13;;;;;;;7.25;5.97;;;3.30;99.90;;;;;;4990282;28;20207;-77
2020/12/12 05:07:39;;;;;;;7.95;5.68;;;3.40;99.90;;;;;;4990534;28;20207;-77
2020/12/12 05:10:05;;;;;;;8.13;6.00;;;3.50;99.90;;;;;;4989969;28;20219;-76
2020/12/12 05:12:33;;;;;;;7.95;6.07;;;3.50;99.90;;;;;;4989527;28;20241;-76
2020/12/12 05:15:00;;;;;;;7.57;6.15;;;3.50;99.90;;;;;;4990140;28;20203;-76
2020/12/12 05:17:26;;;;;;;9.10;6.00;;;3.50;99.90;;;;;;4990273;28;20242;-76
2020/12/12 05:19:52;;;;;;;7.55;5.63;;;3.50;99.90;;;;;;4990431;28;20202;-77
2020/12/12 05:22:18;;;;;;;7.07;5.72;;;3.60;99.90;;;;;;4989197;28;20346;-77
2020/12/12 05:24:45;;;;;;;6.28;5.30;;;3.60;99.90;;;;;;4990127;28;20210;-77
2020/12/12 05:27:11;;;;;;;7.05;5.90;;;3.60;99.90;;;;;;4989872;28;20207;-77
2020/12/12 05:29:38;;;;;;;9.57;5.82;;;3.60;99.90;;;;;;4990074;28;20403;-77
2020/12/12 05:32:05;;;;;;;6.95;5.38;;;3.60;99.90;;;;;;4989155;28;20227;-76
2020/12/12 05:34:31;;;;;;;7.30;5.57;;;3.60;99.90;;;;;;4989820;28;20199;-76
2020/12/12 05:36:58;;;;;;;5.53;4.97;;;3.60;99.90;;;;;;4989846;28;20211;-77
2020/12/12 05:39:24;;;;;;;7.45;5.95;;;3.60;99.90;;;;;;4989841;28;20210;-77
2020/12/12 05:41:51;;;;;;;5.70;4.75;;;3.60;99.90;;;;;;4989146;28;20404;-77
2020/12/12 05:44:18;;;;;;;7.45;4.80;;;3.60;99.90;;;;;;4989887;28;20213;-75
2020/12/12 05:46:46;;;;;;;6.70;5.38;;;3.60;99.90;;;;;;4989757;28;20206;-77
2020/12/12 05:49:13;;;;;;;6.43;5.60;;;3.60;99.90;;;;;;4989513;28;20226;-77
2020/12/12 05:51:40;;;;;;;5.25;4.75;;;3.60;99.90;;;;;;4988703;28;20207;-77
2020/12/12 05:54:07;;;;;;;6.90;5.30;;;3.50;99.90;;;;;;4989320;28;20643;-76
2020/12/12 05:56:34;;;;;;;7.20;5.90;;;3.60;99.90;;;;;;4989928;28;20213;-77
2020/12/12 05:59:01;;;;;;;5.78;4.88;;;3.60;99.90;;;;;;4989722;28;20199;-77
2020/12/12 06:01:29;;;;;;;6.65;5.50;;;3.60;99.90;;;;;;4989866;28;20687;-76
2020/12/12 06:04:02;;;;;;;7.13;5.78;;;3.60;99.90;;;;;;4989442;28;20219;-77
2020/12/12 06:06:30;;;;;;;6.03;4.80;;;3.60;99.90;;;;;;4990253;28;20218;-77
2020/12/12 06:09:06;;;;;;;6.20;5.30;;;3.60;99.90;;;;;;4989592;28;20231;-77
2020/12/12 06:11:34;;;;;;;6.00;5.07;;;3.60;99.90;;;;;;4989610;28;20584;-76
2020/12/12 06:14:02;;;;;;;8.45;5.68;;;3.60;99.90;;;;;;4989409;28;20235;-78
2020/12/12 06:16:30;;;;;;;8.30;5.70;;;3.60;99.90;;;;;;4989506;28;20219;-77
2020/12/12 06:19:07;;;;;;;7.38;5.75;;;3.60;99.90;;;;;;4989500;28;20199;-77
2020/12/12 06:21:35;;;;;;;7.00;5.50;;;3.60;99.90;;;;;;4989470;28;20210;-77
2020/12/12 06:24:03;;;;;;;7.25;5.75;;;3.60;99.90;;;;;;4989167;28;20234;-76
2020/12/12 06:26:54;;;;;;;5.95;5.10;;;3.60;99.90;;;;;;4989429;28;20404;-78
2020/12/12 06:29:21;;;;;;;6.07;5.15;;;3.70;99.90;;;;;;4989160;28;20226;-78
2020/12/12 06:31:48;;;;;;;6.40;5.15;;;3.70;99.90;;;;;;4989153;28;20243;-77
2020/12/12 06:34:15;;;;;;;7.72;5.32;;;3.70;99.90;;;;;;4989203;28;20679;-77
2020/12/12 06:36:47;;;;;;;6.30;5.07;;;3.70;99.90;;;;;;4989715;28;20204;-78
2020/12/12 06:39:24;;;;;;;6.63;4.70;;;3.70;99.90;;;;;;4989454;28;20199;-78
2020/12/12 06:41:52;;;;;;;6.00;5.00;;;3.70;99.90;;;;;;4988666;28;20214;-77
2020/12/12 06:44:32;;;;;;;6.00;4.80;;;3.60;99.90;;;;;;4989252;28;20199;-76
2020/12/12 06:46:58;;;;;;;5.57;4.97;;;3.70;99.90;;;;;;4989242;28;20203;-78
2020/12/12 06:49:24;;;;;;;8.40;5.22;;;3.70;99.90;;;;;;4989137;28;20237;-78
2020/12/12 06:51:52;;;;;;;5.45;4.95;;;3.70;99.90;;;;;;4988505;28;20199;-77
2020/12/12 06:54:19;;;;;;;5.30;4.80;;;3.70;99.90;;;;;;4989517;28;20213;-77
2020/12/12 06:56:45;;;;;;;5.65;4.90;;;3.70;99.90;;;;;;4989243;28;20214;-78
2020/12/12 06:59:25;;;;;;;5.10;4.57;;;3.70;99.90;;;;;;4989212;28;20211;-76
2020/12/12 07:01:53;;;;;;;5.07;4.35;;;3.70;99.90;;;;;;4989357;28;20214;-78
2020/12/12 07:04:27;;;;;;;6.95;5.00;;;3.70;99.90;;;;;;4992220;28;20545;-77
2020/12/12 07:07:04;;;;;;;6.13;5.07;;;3.60;99.90;;;;;;4993060;28;20286;-77
2020/12/12 07:09:31;;;;;;;5.13;4.35;;;3.60;99.90;;;;;;4992767;28;20231;-77
2020/12/12 07:11:58;;;;;;;5.32;4.72;;;3.70;99.90;;;;;;4991667;28;20392;-77
2020/12/12 07:14:24;;;;;;;4.78;4.07;;;3.70;99.90;;;;;;4992457;28;20214;-77
2020/12/12 07:16:52;;;;;;;5.55;4.55;;;3.70;99.90;;;;;;4992690;28;20210;-77
2020/12/12 07:19:31;;;;;;;5.63;4.82;;;3.70;99.90;;;;;;4992339;28;20211;-77
2020/12/12 07:21:57;;;;;;;5.47;4.88;;;3.70;99.90;;;;;;4991751;28;20231;-77
2020/12/12 07:24:25;;;;;;;4.93;4.43;;;3.70;99.90;;;;;;4992331;28;20207;-77
2020/12/12 07:26:51;;;;;;;6.25;4.95;;;3.70;99.90;;;;;;4992435;28;20230;-77
2020/12/12 07:29:18;;;;;;;5.57;4.82;;;3.70;99.90;;;;;;4991982;28;20227;-77
2020/12/12 07:31:45;;;;;;;5.72;4.80;;;3.70;99.90;;;;;;4991751;28;20218;-77
2020/12/12 07:34:11;;;;;;;6.57;5.13;;;3.70;99.90;;;;;;5002346;28;20210;-78
2020/12/12 07:36:37;;;;;;;5.93;5.22;;;3.70;99.90;;;;;;5011583;28;20203;-77
2020/12/12 07:39:08;;;;;;;5.75;4.95;;;3.80;99.90;;;;;;5011534;28;20199;-77
2020/12/12 07:41:43;;;;;;;5.70;4.53;;;3.80;99.90;;;;;;5011549;28;20210;-78
2020/12/12 07:44:09;;;;;;;5.50;5.00;;;3.80;99.90;;;;;;5011182;28;20262;-78
2020/12/12 07:46:40;;;;;;;4.78;4.28;;;3.80;99.90;;;;;;5008945;28;20221;-79
2020/12/12 07:49:07;;;;;;;6.22;4.90;;;3.80;99.90;;;;;;5009820;28;20273;-78
2020/12/12 07:51:34;;;;;;;6.68;5.55;;;3.80;99.90;;;;;;5009739;28;20202;-77
2020/12/12 07:54:00;;;;;;;6.10;4.80;;;3.80;99.90;;;;;;5009053;28;20230;-78
2020/12/12 07:56:29;;;;;;;6.63;5.93;;;3.90;99.90;;;;;;5009822;28;20293;-78
2020/12/12 07:59:03;;;;;;;5.90;5.10;;;3.90;99.90;;;;;;4990242;28;20199;-77
2020/12/12 08:01:29;;;;;;;6.18;4.82;;;3.90;99.90;;;;;;4990332;28;20565;-78
2020/12/12 08:03:55;;;;;;;6.50;5.28;;;3.90;99.90;;;;;;4989898;28;20234;-78
2020/12/12 08:06:26;;;;;;;6.28;4.88;;;4.00;99.90;;;;;;4990000;28;20660;-75
2020/12/12 08:08:54;;;;;;;11.10;5.82;;;4.00;99.90;;;;;;4993167;28;20253;-80
2020/12/12 08:11:21;;;;;;;6.53;4.78;;;4.00;99.90;;;;;;4991716;28;20222;-78
2020/12/12 08:13:47;;;;;;;6.30;5.30;;;4.00;99.90;;;;;;4989599;28;20231;-77
2020/12/12 08:16:18;;;;;;;6.70;5.47;;;4.10;99.90;;;;;;4991857;28;20207;-79
2020/12/12 08:18:44;;;;;;;5.38;4.68;;;4.10;99.90;;;;;;4993413;28;20199;-78
2020/12/12 08:21:15;;;;;;;6.30;4.65;;;4.10;99.90;;;;;;4993123;28;20582;-79
2020/12/12 08:23:42;;;;;;;5.53;5.00;;;4.10;99.90;;;;;;4991795;28;20318;-79
2020/12/12 08:26:12;;;;;;;6.85;4.65;;;4.10;99.90;;;;;;4992271;28;20623;-79
2020/12/12 08:28:39;;;;;;;5.72;5.13;;;4.20;99.90;;;;;;4992475;28;20214;-79
2020/12/12 08:31:12;;;;;;;5.93;4.65;;;4.20;99.90;;;;;;4992039;28;20214;-80
2020/12/12 08:33:40;;;;;;;5.45;4.60;;;4.30;99.90;;;;;;4992393;28;20230;-79
2020/12/12 08:36:14;;;;;;;6.80;5.13;;;4.50;99.90;;;;;;4996094;28;20214;-78
2020/12/12 08:38:41;;;;;;;4.47;3.75;;;4.60;99.90;;;;;;4990970;28;20214;-77
2020/12/12 08:41:14;;;;;;;4.93;4.45;;;4.60;99.90;;;;;;4989566;28;20203;-78
2020/12/12 08:43:43;;;;;;;7.72;5.32;;;4.60;99.90;;;;;;4990390;28;20234;-77
2020/12/12 08:46:09;;;;;;;5.10;4.10;;;4.60;99.90;;;;;;4989715;28;20238;-76
2020/12/12 08:48:37;;;;;;;6.22;5.00;;;4.60;99.90;;;;;;4989916;28;20654;-77
2020/12/12 08:51:05;;;;;;;5.88;4.93;;;4.50;99.90;;;;;;4989590;28;20218;-78
2020/12/12 08:53:34;;;;;;;8.20;4.53;;;4.50;99.90;;;;;;4988950;28;20665;-78
2020/12/12 08:56:09;;;;;;;5.70;4.75;;;4.50;99.90;;;;;;4989140;28;20207;-78
2020/12/12 08:58:37;;;;;;;5.70;4.78;;;4.50;99.90;;;;;;4989835;28;20206;-78
2020/12/12 09:01:28;;;;;;;5.88;4.80;;;4.50;99.90;;;;;;4989519;28;20230;-78
2020/12/12 09:03:56;;;;;;;6.05;4.72;;;4.50;99.90;;;;;;4990849;28;20227;-79
2020/12/12 09:06:24;;;;;;;5.00;4.47;;;4.50;99.90;;;;;;4990768;28;20211;-78
2020/12/12 09:09:08;;;;;;;5.78;4.68;;;4.60;99.90;;;;;;4991533;28;20230;-78
2020/12/12 09:11:35;;;;;;;5.88;4.45;;;4.60;99.90;;;;;;5000075;28;20207;-81
2020/12/12 09:14:02;;;;;;;6.55;4.68;;;4.60;99.90;;;;;;5005887;28;20325;-79
2020/12/12 09:16:29;;;;;;;5.20;4.30;;;4.70;99.90;;;;;;5004902;28;20230;-78
2020/12/12 09:18:56;;;;;;;5.65;4.32;;;4.70;99.90;;;;;;5002366;28;20293;-78
2020/12/12 09:21:23;;;;;;;4.95;3.95;;;4.90;99.90;;;;;;4996431;28;20297;-77
2020/12/12 09:23:50;;;;;;;4.45;3.92;;;4.90;99.90;;;;;;5010614;28;20398;-78
2020/12/12 09:26:18;;;;;;;5.65;4.25;;;4.90;99.90;;;;;;5028951;28;20669;-79
2020/12/12 09:28:44;;;;;;;5.88;4.03;;;5.00;99.90;;;;;;5033572;28;20209;-80
2020/12/12 09:31:10;;;;;;;4.57;4.18;;;5.00;99.90;;;;;;5032011;28;20751;-79
2020/12/12 09:33:36;;;;;;;3.85;3.50;;;5.10;99.90;;;;;;5032200;28;20225;-80
2020/12/12 09:36:04;;;;;;;5.38;3.55;;;5.20;99.90;;;;;;5032131;28;20216;-79
2020/12/12 09:38:31;;;;;;;3.80;3.50;;;5.10;99.90;;;;;;5033369;28;20206;-78
2020/12/12 09:40:58;;;;;;;5.20;4.00;;;5.20;99.90;;;;;;5032410;28;20285;-79
2020/12/12 09:43:24;;;;;;;3.90;3.60;;;5.10;99.90;;;;;;5038306;28;20264;-79
2020/12/12 09:45:50;;;;;;;4.43;4.03;;;5.10;99.90;;;;;;5033344;28;20252;-80
2020/12/12 09:48:17;;;;;;;4.18;3.78;;;5.20;99.90;;;;;;5032898;28;21089;-79
2020/12/12 09:50:44;;;;;;;3.65;3.35;;;5.20;99.90;;;;;;5032912;28;20230;-79
2020/12/12 09:53:11;;;;;;;3.63;3.30;;;5.20;99.90;;;;;;5031637;28;20264;-78
2020/12/12 09:55:41;;;;;;;3.70;3.22;;;5.20;99.90;;;;;;5031649;28;20300;-78
2020/12/12 09:58:08;;;;;;;3.90;3.50;;;5.20;99.90;;;;;;5032288;28;20205;-77
2020/12/12 10:00:36;;;;;;;4.55;3.25;;;5.10;99.90;;;;;;5033959;28;20748;-77
2020/12/12 10:03:04;;;;;;;4.45;3.40;;;5.10;99.90;;;;;;5031655;28;20309;-76
2020/12/12 10:05:31;;;;;;;4.07;3.00;;;5.10;99.90;;;;;;5011873;28;20658;-78
2020/12/12 10:07:58;;;;;;;3.60;3.30;;;5.20;99.90;;;;;;5011055;28;20210;-78
2020/12/12 10:10:26;;;;;;;3.50;3.20;;;5.20;99.90;;;;;;5011195;28;20619;-78
2020/12/12 10:12:53;;;;;;;3.58;3.28;;;5.20;99.90;;;;;;5023527;28;20236;-77
2020/12/12 10:15:21;;;;;;;3.17;2.88;;;5.10;99.90;;;;;;5011360;28;20261;-76
2020/12/12 10:17:49;;;;;;;3.35;2.92;;;5.20;99.90;;;;;;5010329;28;21129;-76
2020/12/12 10:20:16;;;;;;;3.13;2.53;;;5.20;99.90;;;;;;5010046;28;20202;-79
2020/12/12 10:22:42;;;;;;;3.60;2.95;;;5.30;99.90;;;;;;5012731;28;20257;-80
2020/12/12 10:25:09;;;;;;;3.97;3.15;;;5.30;99.90;;;;;;5018487;23;20231;-74
2020/12/12 10:27:36;;;;;;;2.80;2.60;;;5.30;99.90;;;;;;5002448;28;20226;-74
2020/12/12 10:30:04;;;;;;;3.20;2.90;;;5.40;99.90;;;;;;4987818;28;20227;-74
2020/12/12 10:32:30;;;;;;;3.65;3.30;;;5.40;99.90;;;;;;4987419;28;20258;-74
2020/12/12 10:34:57;;;;;;;3.95;3.00;;;5.50;99.90;;;;;;4987437;28;20203;-76
2020/12/12 10:37:23;;;;;;;3.50;3.17;;;5.60;99.90;;;;;;4987916;28;20207;-76
2020/12/12 10:39:54;;;;;;;3.80;3.20;;;5.70;99.90;;;;;;4991397;28;20206;-75
2020/12/12 10:42:21;;;;;;;3.30;3.00;;;5.70;99.90;;;;;;4990744;28;20620;-75
2020/12/12 10:44:47;;;;;;;3.30;3.00;;;5.70;99.90;;;;;;4991584;28;20211;-75
2020/12/12 10:47:15;;;;;;;3.78;2.65;;;5.70;99.90;;;;;;4991838;28;20217;-75
2020/12/12 10:49:42;;;;;;;4.32;3.50;;;5.70;99.90;;;;;;4991183;28;20223;-76
2020/12/12 10:52:08;;;;;;;4.30;3.45;;;5.60;99.90;;;;;;4990925;28;20253;-75
2020/12/12 10:54:34;;;;;;;3.92;3.40;;;5.70;99.90;;;;;;4991304;28;20210;-75
2020/12/12 10:57:01;;;;;;;3.40;3.10;;;5.60;99.90;;;;;;4991388;28;20262;-75
2020/12/12 10:59:27;;;;;;;3.50;3.20;;;5.70;99.90;;;;;;4991946;28;20412;-75
2020/12/12 11:01:54;;;;;;;3.50;3.17;;;5.70;99.90;;;;;;4991032;28;20313;-75
2020/12/12 11:04:22;;;;;;;3.42;3.13;;;5.80;99.90;;;;;;4990749;28;20210;-75
2020/12/12 11:06:49;;;;;;;3.33;2.90;;;5.80;99.90;;;;;;4991535;28;20666;-75
2020/12/12 11:09:15;;;;;;;3.50;2.95;;;5.80;99.90;;;;;;4991228;28;20234;-76
2020/12/12 11:11:42;;;;;;;3.28;3.03;;;5.80;99.90;;;;;;4989668;28;20297;-75
2020/12/12 11:14:10;;;;;;;3.30;3.00;;;5.80;99.90;;;;;;4991607;28;20211;-75
2020/12/12 11:16:37;;;;;;;3.67;3.00;;;5.70;99.90;;;;;;4993595;28;20667;-75
2020/12/12 11:19:09;;;;;;;3.50;3.20;;;5.70;99.90;;;;;;4994616;28;20210;-74
2020/12/12 11:21:40;;;;;;;3.85;2.97;;;5.80;99.90;;;;;;4992879;28;20206;-76
2020/12/12 11:24:07;;;;;;;3.58;3.28;;;5.90;99.90;;;;;;4994608;28;20210;-76
2020/12/12 11:26:34;;;;;;;3.65;3.35;;;5.90;99.90;;;;;;4993278;28;20689;-77
2020/12/12 11:29:01;;;;;;;4.18;3.20;;;5.90;99.90;;;;;;4991242;28;20203;-76
2020/12/12 11:31:27;;;;;;;3.50;3.20;;;5.90;99.90;;;;;;4990744;28;20207;-77
2020/12/12 11:33:59;;;;;;;4.05;3.50;;;5.80;99.90;;;;;;4990939;28;20219;-76
2020/12/12 11:36:47;;;;;;;7.38;3.85;;;5.80;99.90;;;;;;4991215;28;20211;-76
2020/12/12 11:39:18;;;;;;;4.22;3.50;;;5.80;99.90;;;;;;4992141;28;20211;-76
2020/12/12 11:42:05;;;;;;;3.83;2.88;;;5.90;99.90;;;;;;4991525;28;20206;-76
2020/12/12 11:44:46;;;;;;;3.00;2.75;;;5.90;99.90;;;;;;4992019;28;20569;-76
2020/12/12 11:47:13;;;;;;;4.78;3.45;;;6.00;99.90;;;;;;4991694;28;20242;-75
2020/12/12 11:49:42;;;;;;;4.10;3.25;;;6.00;99.90;;;;;;4990967;28;20234;-75
2020/12/12 11:52:08;;;;;;;8.02;3.70;;;6.10;99.90;;;;;;4991488;28;20234;-76
2020/12/12 11:54:35;;;;;;;5.18;3.78;;;6.10;99.90;;;;;;4991243;28;20207;-75
2020/12/12 11:57:04;;;;;;;5.65;3.60;;;6.10;99.90;;;;;;4991390;28;20214;-75
2020/12/12 11:59:30;;;;;;;5.45;3.65;;;6.10;99.90;;;;;;4991234;28;20199;-77
2020/12/12 12:01:57;;;;;;;3.72;2.88;;;6.00;99.90;;;;;;4990894;28;20290;-75
2020/12/12 12:04:24;;;;;;;6.03;4.03;;;6.00;99.90;;;;;;4990807;28;20245;-75
2020/12/12 12:06:50;;;;;;;3.65;3.25;;;6.00;99.90;;;;;;4990367;28;20218;-75
2020/12/12 12:09:22;;;;;;;4.22;3.65;;;6.10;99.90;;;;;;4990281;28;20230;-76
2020/12/12 12:11:50;;;;;;;3.70;3.20;;;6.10;99.90;;;;;;4987767;28;20220;-75
2020/12/12 12:14:17;;;;;;;3.67;3.20;;;6.10;99.90;;;;;;4988594;28;20238;-75
2020/12/12 12:16:43;;;;;;;3.55;3.22;;;6.20;99.90;;;;;;4990264;28;20215;-74
2020/12/12 12:19:11;;;;;;;3.75;3.42;;;6.30;99.90;;;;;;4980010;28;20197;-75
2020/12/12 12:21:38;;;;;;;4.32;3.63;;;6.30;99.90;;;;;;4969765;28;20322;-76
2020/12/12 12:24:05;;;;;;;6.60;3.85;;;6.30;99.90;;;;;;4970307;28;20203;-75
2020/12/12 12:26:34;;;;;;;4.45;4.05;;;6.30;99.90;;;;;;4971841;28;20207;-76
2020/12/12 12:29:01;;;;;;;3.67;3.38;;;6.30;99.90;;;;;;4981074;28;20655;-76
2020/12/12 12:31:28;;;;;;;4.05;3.05;;;6.30;99.90;;;;;;4990392;28;20199;-76
2020/12/12 12:33:54;;;;;;;4.60;3.80;;;6.30;99.90;;;;;;4999142;28;20231;-76
2020/12/12 12:36:23;;;;;;;4.28;3.88;;;6.30;99.90;;;;;;4997005;28;20210;-76
2020/12/12 12:38:50;;;;;;;4.50;3.25;;;6.30;99.90;;;;;;5001767;28;20214;-76
2020/12/12 12:41:16;;;;;;;4.20;3.72;;;6.30;99.90;;;;;;4991536;28;20556;-75
2020/12/12 12:43:42;;;;;;;3.80;3.08;;;6.30;99.90;;;;;;4990967;28;20238;-76
2020/12/12 12:46:09;;;;;;;7.25;6.30;;;6.40;99.90;;;;;;4989358;28;20278;-76
2020/12/12 12:48:36;;;;;;;12.63;7.75;;;6.40;99.90;;;;;;4989237;28;20674;-75
2020/12/12 12:51:05;;;;;;;6.88;6.05;;;6.40;99.90;;;;;;4989164;28;20234;-76
2020/12/12 12:53:31;;;;;;;4.18;3.78;;;6.50;99.90;;;;;;4988919;28;20230;-76
2020/12/12 12:55:58;;;;;;;6.13;5.13;;;6.50;99.90;;;;;;4988236;28;20207;-74
2020/12/12 12:58:24;;;;;;;5.28;4.78;;;6.50;99.90;;;;;;4989605;28;20277;-76
2020/12/12 13:00:50;;;;;;;3.50;3.20;;;6.50;99.90;;;;;;4989085;28;20260;-75